sensor_id;sensor_type;location;lat;lon;timestamp;pressure;altitude;pressure_sealevel;temperature;humidity
8366;BME280;4220;42.502;24.188;2022-12-18T00:00:46;95800.34;;;7.89;100.00
8366;BME280;4220;42.502;24.188;2022-12-18T00:03:14;95809.72;;;7.91;100.00
8366;BME280;4220;42.502;24.188;2022-12-18T00:05:46;95812.09;;;7.86;100.00
8366;BME280;4220;42.502;24.188;2022-12-18T00:08:14;95814.63;;;7.59;100.00
8366;BME280;4220;42.502;24.188;2022-12-18T00:10:42;95812.28;;;7.35;100.00
8366;BME280;4220;42.502;24.188;2022-12-18T00:13:09;95806.84;;;7.21;100.00
8366;BME280;4220;42.502;24.188;2022-12-18T00:15:38;95822.69;;;7.21;100.00
8366;BME280;4220;42.502;24.188;2022-12-18T00:18:06;95818.31;;;7.29;100.00
8366;BME280;4220;42.502;24.188;2022-12-18T00:20:36;95817.47;;;7.43;100.00
8366;BME280;4220;42.502;24.188;2022-12-18T00:23:03;95826.22;;;7.43;100.00
8366;BME280;4220;42.502;24.188;2022-12-18T00:25:32;95825.38;;;7.43;100.00
8366;BME280;4220;42.502;24.188;2022-12-18T00:27:59;95782.50;;;7.05;100.00
8366;BME280;4220;42.502;24.188;2022-12-18T00:30:26;95836.75;;;7.43;100.00
8366;BME280;4220;42.502;24.188;2022-12-18T00:32:57;95840.78;;;7.54;100.00
8366;BME280;4220;42.502;24.188;2022-12-18T00:35:24;95844.19;;;7.54;100.00
8366;BME280;4220;42.502;24.188;2022-12-18T00:37:51;95842.03;;;7.58;100.00
8366;BME280;4220;42.502;24.188;2022-12-18T00:40:18;95850.16;;;7.42;100.00
8366;BME280;4220;42.502;24.188;2022-12-18T00:42:45;95846.41;;;7.36;100.00
8366;BME280;4220;42.502;24.188;2022-12-18T00:45:23;95849.50;;;7.40;100.00
8366;BME280;4220;42.502;24.188;2022-12-18T00:47:49;95844.75;;;7.50;100.00
8366;BME280;4220;42.502;24.188;2022-12-18T00:50:18;95849.47;;;7.54;100.00
8366;BME280;4220;42.502;24.188;2022-12-18T00:52:45;95853.78;;;7.41;100.00
8366;BME280;4220;42.502;24.188;2022-12-18T00:55:12;95848.28;;;7.57;100.00
8366;BME280;4220;42.502;24.188;2022-12-18T00:57:39;95851.09;;;7.70;100.00
8366;BME280;4220;42.502;24.188;2022-12-18T01:00:09;95861.22;;;7.81;100.00
8366;BME280;4220;42.502;24.188;2022-12-18T01:02:36;95861.06;;;7.89;100.00
8366;BME280;4220;42.502;24.188;2022-12-18T01:05:05;95863.19;;;7.94;100.00
8366;BME280;4220;42.502;24.188;2022-12-18T01:07:33;95859.25;;;7.54;100.00
8366;BME280;4220;42.502;24.188;2022-12-18T01:10:00;95858.59;;;7.22;100.00
8366;BME280;4220;42.502;24.188;2022-12-18T01:12:26;95856.91;;;7.30;100.00
8366;BME280;4220;42.502;24.188;2022-12-18T01:14:53;95865.16;;;7.41;100.00
8366;BME280;4220;42.502;24.188;2022-12-18T01:17:21;95869.00;;;7.39;100.00
8366;BME280;4220;42.502;24.188;2022-12-18T01:19:48;95860.16;;;7.32;100.00
8366;BME280;4220;42.502;24.188;2022-12-18T01:22:15;95847.41;;;7.06;100.00
8366;BME280;4220;42.502;24.188;2022-12-18T01:24:43;95872.69;;;7.00;100.00
8366;BME280;4220;42.502;24.188;2022-12-18T01:27:10;95872.88;;;6.99;100.00
8366;BME280;4220;42.502;24.188;2022-12-18T01:29:37;95866.16;;;7.11;100.00
8366;BME280;4220;42.502;24.188;2022-12-18T01:32:04;95867.81;;;7.27;100.00
8366;BME280;4220;42.502;24.188;2022-12-18T01:34:31;95864.53;;;7.39;100.00
8366;BME280;4220;42.502;24.188;2022-12-18T01:36:57;95851.78;;;7.43;100.00
8366;BME280;4220;42.502;24.188;2022-12-18T01:39:24;95866.97;;;7.41;100.00
8366;BME280;4220;42.502;24.188;2022-12-18T01:41:53;95869.25;;;7.29;100.00
8366;BME280;4220;42.502;24.188;2022-12-18T01:44:57;95865.25;;;7.18;100.00
8366;BME280;4220;42.502;24.188;2022-12-18T01:47:27;95861.78;;;7.33;100.00
8366;BME280;4220;42.502;24.188;2022-12-18T01:49:56;95865.78;;;7.43;100.00
8366;BME280;4220;42.502;24.188;2022-12-18T01:52:24;95868.50;;;7.50;100.00
8366;BME280;4220;42.502;24.188;2022-12-18T01:54:53;95869.69;;;7.62;100.00
8366;BME280;4220;42.502;24.188;2022-12-18T01:57:22;95875.50;;;7.72;100.00
8366;BME280;4220;42.502;24.188;2022-12-18T01:59:52;95874.88;;;7.70;100.00
8366;BME280;4220;42.502;24.188;2022-12-18T02:02:21;95876.06;;;7.67;100.00
8366;BME280;4220;42.502;24.188;2022-12-18T02:04:47;95871.66;;;7.74;100.00
8366;BME280;4220;42.502;24.188;2022-12-18T02:07:19;95872.31;;;7.76;100.00
8366;BME280;4220;42.502;24.188;2022-12-18T02:09:50;95857.47;;;7.75;100.00
8366;BME280;4220;42.502;24.188;2022-12-18T02:12:23;95873.13;;;7.77;100.00
8366;BME280;4220;42.502;24.188;2022-12-18T02:14:55;95871.06;;;7.58;100.00
8366;BME280;4220;42.502;24.188;2022-12-18T02:17:29;95874.69;;;7.57;100.00
8366;BME280;4220;42.502;24.188;2022-12-18T02:20:05;95873.91;;;7.42;100.00
8366;BME280;4220;42.502;24.188;2022-12-18T02:22:43;95871.78;;;7.08;100.00
8366;BME280;4220;42.502;24.188;2022-12-18T02:25:25;95879.13;;;6.98;100.00
8366;BME280;4220;42.502;24.188;2022-12-18T02:27:58;95877.97;;;7.00;100.00
8366;BME280;4220;42.502;24.188;2022-12-18T02:30:27;95872.31;;;7.03;100.00
8366;BME280;4220;42.502;24.188;2022-12-18T02:32:57;95879.69;;;6.93;100.00
8366;BME280;4220;42.502;24.188;2022-12-18T02:35:28;95879.03;;;6.91;100.00
8366;BME280;4220;42.502;24.188;2022-12-18T02:37:57;95876.69;;;6.96;100.00
8366;BME280;4220;42.502;24.188;2022-12-18T02:40:26;95836.66;;;6.78;100.00
8366;BME280;4220;42.502;24.188;2022-12-18T02:42:54;95877.78;;;6.87;100.00
8366;BME280;4220;42.502;24.188;2022-12-18T02:45:22;95879.00;;;6.77;100.00
8366;BME280;4220;42.502;24.188;2022-12-18T02:47:49;95874.56;;;6.77;100.00
8366;BME280;4220;42.502;24.188;2022-12-18T02:50:20;95896.13;;;6.95;100.00
8366;BME280;4220;42.502;24.188;2022-12-18T02:52:55;95895.72;;;7.06;100.00
8366;BME280;4220;42.502;24.188;2022-12-18T02:55:35;95894.06;;;7.05;100.00
8366;BME280;4220;42.502;24.188;2022-12-18T02:58:11;95896.00;;;7.11;100.00
8366;BME280;4220;42.502;24.188;2022-12-18T03:00:48;95895.81;;;7.13;100.00
8366;BME280;4220;42.502;24.188;2022-12-18T03:03:23;95892.53;;;7.25;100.00
8366;BME280;4220;42.502;24.188;2022-12-18T03:05:53;95895.94;;;7.34;100.00
8366;BME280;4220;42.502;24.188;2022-12-18T03:08:23;95897.91;;;7.17;100.00
8366;BME280;4220;42.502;24.188;2022-12-18T03:10:53;95904.81;;;7.04;100.00
8366;BME280;4220;42.502;24.188;2022-12-18T03:13:26;95914.59;;;6.95;100.00
8366;BME280;4220;42.502;24.188;2022-12-18T03:15:56;95899.06;;;7.00;100.00
8366;BME280;4220;42.502;24.188;2022-12-18T03:18:26;95908.06;;;7.06;100.00
8366;BME280;4220;42.502;24.188;2022-12-18T03:20:58;95906.53;;;7.11;100.00
8366;BME280;4220;42.502;24.188;2022-12-18T03:23:29;95910.91;;;7.19;100.00
8366;BME280;4220;42.502;24.188;2022-12-18T03:26:05;95914.91;;;7.15;100.00
8366;BME280;4220;42.502;24.188;2022-12-18T03:28:36;95912.69;;;6.89;100.00
8366;BME280;4220;42.502;24.188;2022-12-18T03:31:08;95875.66;;;6.68;100.00
8366;BME280;4220;42.502;24.188;2022-12-18T03:33:40;95918.59;;;6.91;100.00
8366;BME280;4220;42.502;24.188;2022-12-18T03:36:08;95927.59;;;6.82;100.00
8366;BME280;4220;42.502;24.188;2022-12-18T03:38:35;95930.09;;;6.76;100.00
8366;BME280;4220;42.502;24.188;2022-12-18T03:41:07;95932.13;;;6.88;100.00
8366;BME280;4220;42.502;24.188;2022-12-18T03:43:43;95941.53;;;7.05;100.00
8366;BME280;4220;42.502;24.188;2022-12-18T03:46:18;95943.56;;;7.18;100.00
8366;BME280;4220;42.502;24.188;2022-12-18T03:48:51;95949.38;;;7.13;100.00
8366;BME280;4220;42.502;24.188;2022-12-18T03:51:24;95952.09;;;7.05;100.00
8366;BME280;4220;42.502;24.188;2022-12-18T03:53:56;95951.06;;;6.92;100.00
8366;BME280;4220;42.502;24.188;2022-12-18T03:56:26;95957.56;;;6.81;100.00
8366;BME280;4220;42.502;24.188;2022-12-18T03:58:56;95952.63;;;6.78;100.00
8366;BME280;4220;42.502;24.188;2022-12-18T04:01:28;95961.56;;;6.77;100.00
8366;BME280;4220;42.502;24.188;2022-12-18T04:04:00;95947.47;;;6.70;100.00
8366;BME280;4220;42.502;24.188;2022-12-18T04:06:28;95949.06;;;6.71;100.00
8366;BME280;4220;42.502;24.188;2022-12-18T04:08:57;95966.13;;;6.83;100.00
8366;BME280;4220;42.502;24.188;2022-12-18T04:11:24;95975.38;;;6.79;100.00
8366;BME280;4220;42.502;24.188;2022-12-18T04:13:55;95968.59;;;6.62;100.00
8366;BME280;4220;42.502;24.188;2022-12-18T04:16:22;95986.09;;;6.55;100.00
8366;BME280;4220;42.502;24.188;2022-12-18T04:18:50;95985.53;;;6.37;100.00
8366;BME280;4220;42.502;24.188;2022-12-18T04:21:17;95985.09;;;6.33;100.00
8366;BME280;4220;42.502;24.188;2022-12-18T04:23:44;95984.28;;;6.25;100.00
8366;BME280;4220;42.502;24.188;2022-12-18T04:26:11;95990.22;;;6.27;100.00
8366;BME280;4220;42.502;24.188;2022-12-18T04:28:38;95996.19;;;6.21;100.00
8366;BME280;4220;42.502;24.188;2022-12-18T04:31:05;95992.38;;;6.23;100.00
8366;BME280;4220;42.502;24.188;2022-12-18T04:33:32;96010.63;;;6.25;100.00
8366;BME280;4220;42.502;24.188;2022-12-18T04:36:00;95999.28;;;6.24;100.00
8366;BME280;4220;42.502;24.188;2022-12-18T04:38:27;96013.28;;;6.25;100.00
8366;BME280;4220;42.502;24.188;2022-12-18T04:40:53;96013.91;;;6.27;100.00
8366;BME280;4220;42.502;24.188;2022-12-18T04:43:20;95999.13;;;6.26;100.00
8366;BME280;4220;42.502;24.188;2022-12-18T04:45:47;96011.13;;;6.28;100.00
8366;BME280;4220;42.502;24.188;2022-12-18T04:48:14;96015.88;;;6.33;100.00
8366;BME280;4220;42.502;24.188;2022-12-18T04:50:41;96018.31;;;6.34;100.00
8366;BME280;4220;42.502;24.188;2022-12-18T04:53:09;96021.31;;;6.31;100.00
8366;BME280;4220;42.502;24.188;2022-12-18T04:55:36;96014.22;;;6.32;100.00
8366;BME280;4220;42.502;24.188;2022-12-18T04:58:02;96030.00;;;6.40;100.00
8366;BME280;4220;42.502;24.188;2022-12-18T05:00:29;96024.91;;;6.38;100.00
8366;BME280;4220;42.502;24.188;2022-12-18T05:02:56;96036.34;;;6.23;100.00
8366;BME280;4220;42.502;24.188;2022-12-18T05:05:23;96032.44;;;6.11;100.00
8366;BME280;4220;42.502;24.188;2022-12-18T05:07:50;96049.41;;;6.00;100.00
8366;BME280;4220;42.502;24.188;2022-12-18T05:10:18;96052.91;;;5.92;100.00
8366;BME280;4220;42.502;24.188;2022-12-18T05:12:45;96055.56;;;5.76;100.00
8366;BME280;4220;42.502;24.188;2022-12-18T05:15:28;96024.69;;;5.62;100.00
8366;BME280;4220;42.502;24.188;2022-12-18T05:17:55;96058.22;;;5.84;100.00
8366;BME280;4220;42.502;24.188;2022-12-18T05:20:22;96062.75;;;5.82;100.00
8366;BME280;4220;42.502;24.188;2022-12-18T05:22:50;96058.16;;;5.92;100.00
8366;BME280;4220;42.502;24.188;2022-12-18T05:25:18;96066.38;;;5.98;100.00
8366;BME280;4220;42.502;24.188;2022-12-18T05:27:45;96057.84;;;5.96;100.00
8366;BME280;4220;42.502;24.188;2022-12-18T05:30:13;96069.00;;;5.98;100.00
8366;BME280;4220;42.502;24.188;2022-12-18T05:32:40;96077.94;;;5.72;100.00
8366;BME280;4220;42.502;24.188;2022-12-18T05:35:08;96070.53;;;5.76;100.00
8366;BME280;4220;42.502;24.188;2022-12-18T05:37:35;96087.47;;;5.81;100.00
8366;BME280;4220;42.502;24.188;2022-12-18T05:40:03;96001.00;;;5.46;100.00
8366;BME280;4220;42.502;24.188;2022-12-18T05:42:31;96087.94;;;6.01;100.00
8366;BME280;4220;42.502;24.188;2022-12-18T05:44:58;96082.81;;;6.08;100.00
8366;BME280;4220;42.502;24.188;2022-12-18T05:47:26;96087.75;;;6.03;100.00
8366;BME280;4220;42.502;24.188;2022-12-18T05:49:53;96081.53;;;5.96;100.00
8366;BME280;4220;42.502;24.188;2022-12-18T05:52:20;96094.19;;;6.00;100.00
8366;BME280;4220;42.502;24.188;2022-12-18T05:54:47;96082.34;;;5.96;100.00
8366;BME280;4220;42.502;24.188;2022-12-18T05:57:14;96084.47;;;6.01;100.00
8366;BME280;4220;42.502;24.188;2022-12-18T05:59:42;96088.09;;;6.00;100.00
8366;BME280;4220;42.502;24.188;2022-12-18T06:02:09;96086.59;;;6.05;100.00
8366;BME280;4220;42.502;24.188;2022-12-18T06:04:35;96084.78;;;6.14;100.00
8366;BME280;4220;42.502;24.188;2022-12-18T06:07:04;96109.78;;;6.18;100.00
8366;BME280;4220;42.502;24.188;2022-12-18T06:09:30;96112.47;;;6.02;100.00
8366;BME280;4220;42.502;24.188;2022-12-18T06:11:58;96114.78;;;5.97;100.00
8366;BME280;4220;42.502;24.188;2022-12-18T06:14:25;96110.31;;;5.81;100.00
8366;BME280;4220;42.502;24.188;2022-12-18T06:16:53;96116.13;;;5.84;100.00
8366;BME280;4220;42.502;24.188;2022-12-18T06:19:20;96120.38;;;5.93;100.00
8366;BME280;4220;42.502;24.188;2022-12-18T06:21:47;96071.38;;;5.84;100.00
8366;BME280;4220;42.502;24.188;2022-12-18T06:24:14;96124.59;;;6.19;100.00
8366;BME280;4220;42.502;24.188;2022-12-18T06:26:41;96123.63;;;6.12;100.00
8366;BME280;4220;42.502;24.188;2022-12-18T06:29:08;96131.22;;;6.07;100.00
8366;BME280;4220;42.502;24.188;2022-12-18T06:31:35;96132.00;;;6.07;100.00
8366;BME280;4220;42.502;24.188;2022-12-18T06:34:04;96133.34;;;6.11;100.00
8366;BME280;4220;42.502;24.188;2022-12-18T06:36:31;96129.75;;;6.04;100.00
8366;BME280;4220;42.502;24.188;2022-12-18T06:38:58;96141.06;;;6.13;100.00
8366;BME280;4220;42.502;24.188;2022-12-18T06:41:25;96147.03;;;6.07;100.00
8366;BME280;4220;42.502;24.188;2022-12-18T06:43:52;96148.31;;;6.03;100.00
8366;BME280;4220;42.502;24.188;2022-12-18T06:46:18;96153.44;;;5.96;100.00
8366;BME280;4220;42.502;24.188;2022-12-18T06:48:47;96160.38;;;5.89;100.00
8366;BME280;4220;42.502;24.188;2022-12-18T06:51:18;96153.94;;;5.91;100.00
8366;BME280;4220;42.502;24.188;2022-12-18T06:53:45;96162.47;;;6.10;100.00
8366;BME280;4220;42.502;24.188;2022-12-18T06:56:11;96155.38;;;6.26;100.00
8366;BME280;4220;42.502;24.188;2022-12-18T06:58:39;96162.69;;;6.55;100.00
8366;BME280;4220;42.502;24.188;2022-12-18T07:01:08;96169.72;;;6.63;100.00
8366;BME280;4220;42.502;24.188;2022-12-18T07:03:35;96161.75;;;6.32;100.00
8366;BME280;4220;42.502;24.188;2022-12-18T07:06:02;96168.69;;;6.25;100.00
8366;BME280;4220;42.502;24.188;2022-12-18T07:08:31;96178.94;;;6.12;100.00
8366;BME280;4220;42.502;24.188;2022-12-18T07:10:58;96179.28;;;6.09;100.00
8366;BME280;4220;42.502;24.188;2022-12-18T07:13:25;96184.53;;;6.09;100.00
8366;BME280;4220;42.502;24.188;2022-12-18T07:15:52;96166.63;;;5.88;100.00
8366;BME280;4220;42.502;24.188;2022-12-18T07:18:18;96194.75;;;5.96;100.00
8366;BME280;4220;42.502;24.188;2022-12-18T07:20:45;96188.81;;;5.93;100.00
8366;BME280;4220;42.502;24.188;2022-12-18T07:23:12;96197.38;;;5.87;100.00
8366;BME280;4220;42.502;24.188;2022-12-18T07:25:40;96205.06;;;5.73;100.00
8366;BME280;4220;42.502;24.188;2022-12-18T07:28:07;96216.78;;;5.62;100.00
8366;BME280;4220;42.502;24.188;2022-12-18T07:30:36;96212.00;;;5.66;100.00
8366;BME280;4220;42.502;24.188;2022-12-18T07:33:03;96211.00;;;5.67;100.00
8366;BME280;4220;42.502;24.188;2022-12-18T07:35:30;96218.41;;;5.63;100.00
8366;BME280;4220;42.502;24.188;2022-12-18T07:37:57;96210.66;;;5.54;100.00
8366;BME280;4220;42.502;24.188;2022-12-18T07:40:24;96219.22;;;5.64;100.00
8366;BME280;4220;42.502;24.188;2022-12-18T07:42:52;96215.13;;;5.61;100.00
8366;BME280;4220;42.502;24.188;2022-12-18T07:45:19;96207.22;;;5.61;100.00
8366;BME280;4220;42.502;24.188;2022-12-18T07:47:45;96226.47;;;5.62;100.00
8366;BME280;4220;42.502;24.188;2022-12-18T07:50:12;96218.41;;;5.63;100.00
8366;BME280;4220;42.502;24.188;2022-12-18T07:52:39;96216.59;;;5.72;100.00
8366;BME280;4220;42.502;24.188;2022-12-18T07:55:07;96214.66;;;5.90;100.00
8366;BME280;4220;42.502;24.188;2022-12-18T07:57:34;96227.16;;;6.12;100.00
8366;BME280;4220;42.502;24.188;2022-12-18T08:00:02;96236.34;;;6.32;100.00
8366;BME280;4220;42.502;24.188;2022-12-18T08:02:30;96238.63;;;6.51;100.00
8366;BME280;4220;42.502;24.188;2022-12-18T08:04:57;96228.91;;;6.44;100.00
8366;BME280;4220;42.502;24.188;2022-12-18T08:07:24;96245.84;;;6.57;100.00
8366;BME280;4220;42.502;24.188;2022-12-18T08:09:51;96242.41;;;6.57;100.00
8366;BME280;4220;42.502;24.188;2022-12-18T08:12:18;96249.84;;;6.53;100.00
8366;BME280;4220;42.502;24.188;2022-12-18T08:14:44;96252.16;;;6.48;100.00
8366;BME280;4220;42.502;24.188;2022-12-18T08:17:13;96245.53;;;6.44;100.00
8366;BME280;4220;42.502;24.188;2022-12-18T08:19:40;96244.56;;;6.37;100.00
8366;BME280;4220;42.502;24.188;2022-12-18T08:22:06;96198.53;;;6.01;100.00
8366;BME280;4220;42.502;24.188;2022-12-18T08:24:33;96258.91;;;6.27;100.00
8366;BME280;4220;42.502;24.188;2022-12-18T08:27:00;96252.34;;;6.31;100.00
8366;BME280;4220;42.502;24.188;2022-12-18T08:29:27;96265.00;;;6.27;100.00
8366;BME280;4220;42.502;24.188;2022-12-18T08:31:53;96273.09;;;6.26;100.00
8366;BME280;4220;42.502;24.188;2022-12-18T08:34:22;96243.97;;;6.11;100.00
8366;BME280;4220;42.502;24.188;2022-12-18T08:36:48;96270.13;;;6.21;100.00
8366;BME280;4220;42.502;24.188;2022-12-18T08:39:15;96258.25;;;6.17;100.00
8366;BME280;4220;42.502;24.188;2022-12-18T08:41:42;96266.50;;;6.06;100.00
8366;BME280;4220;42.502;24.188;2022-12-18T08:44:29;96266.66;;;6.12;100.00
8366;BME280;4220;42.502;24.188;2022-12-18T08:47:03;96271.91;;;6.12;100.00
8366;BME280;4220;42.502;24.188;2022-12-18T08:49:31;96274.75;;;6.19;100.00
8366;BME280;4220;42.502;24.188;2022-12-18T08:51:58;96266.47;;;6.22;100.00
8366;BME280;4220;42.502;24.188;2022-12-18T08:54:26;96285.94;;;6.21;100.00
8366;BME280;4220;42.502;24.188;2022-12-18T08:56:52;96289.22;;;6.23;100.00
8366;BME280;4220;42.502;24.188;2022-12-18T08:59:19;96268.78;;;6.25;100.00
8366;BME280;4220;42.502;24.188;2022-12-18T09:01:46;96269.44;;;6.27;100.00
8366;BME280;4220;42.502;24.188;2022-12-18T09:04:13;96277.53;;;6.25;100.00
8366;BME280;4220;42.502;24.188;2022-12-18T09:06:41;96269.81;;;6.24;100.00
8366;BME280;4220;42.502;24.188;2022-12-18T09:09:09;96288.56;;;6.29;100.00
8366;BME280;4220;42.502;24.188;2022-12-18T09:11:36;96277.53;;;6.25;100.00
8366;BME280;4220;42.502;24.188;2022-12-18T09:14:03;96227.50;;;6.01;100.00
8366;BME280;4220;42.502;24.188;2022-12-18T09:16:31;96290.19;;;6.38;100.00
8366;BME280;4220;42.502;24.188;2022-12-18T09:19:02;96265.19;;;6.34;100.00
8366;BME280;4220;42.502;24.188;2022-12-18T09:21:31;96273.22;;;6.32;100.00
8366;BME280;4220;42.502;24.188;2022-12-18T09:24:00;96290.38;;;6.28;100.00
8366;BME280;4220;42.502;24.188;2022-12-18T09:26:27;96290.19;;;6.30;100.00
8366;BME280;4220;42.502;24.188;2022-12-18T09:28:54;96298.09;;;6.30;100.00
8366;BME280;4220;42.502;24.188;2022-12-18T09:31:22;96279.00;;;6.20;100.00
8366;BME280;4220;42.502;24.188;2022-12-18T09:33:50;96282.47;;;6.12;100.00
8366;BME280;4220;42.502;24.188;2022-12-18T09:36:17;96287.06;;;6.10;100.00
8366;BME280;4220;42.502;24.188;2022-12-18T09:38:45;96286.94;;;6.12;100.00
8366;BME280;4220;42.502;24.188;2022-12-18T09:41:31;96276.88;;;6.15;100.00
8366;BME280;4220;42.502;24.188;2022-12-18T09:44:03;96262.06;;;6.06;100.00
8366;BME280;4220;42.502;24.188;2022-12-18T09:46:38;96272.75;;;6.13;100.00
8366;BME280;4220;42.502;24.188;2022-12-18T09:49:12;96276.69;;;6.17;100.00
8366;BME280;4220;42.502;24.188;2022-12-18T09:51:44;96278.34;;;6.10;100.00
8366;BME280;4220;42.502;24.188;2022-12-18T09:54:15;96269.47;;;6.11;100.00
8366;BME280;4220;42.502;24.188;2022-12-18T09:56:44;96276.53;;;6.18;100.00
8366;BME280;4220;42.502;24.188;2022-12-18T09:59:20;96269.94;;;6.22;100.00
8366;BME280;4220;42.502;24.188;2022-12-18T10:01:47;96270.13;;;6.21;100.00
8366;BME280;4220;42.502;24.188;2022-12-18T10:04:14;96265.50;;;6.23;100.00
8366;BME280;4220;42.502;24.188;2022-12-18T10:06:46;96249.38;;;6.18;100.00
8366;BME280;4220;42.502;24.188;2022-12-18T10:09:21;96264.34;;;6.25;100.00
8366;BME280;4220;42.502;24.188;2022-12-18T10:11:57;96269.13;;;6.30;100.00
8366;BME280;4220;42.502;24.188;2022-12-18T10:14:35;96257.09;;;6.35;100.00
8366;BME280;4220;42.502;24.188;2022-12-18T10:17:10;96278.66;;;6.39;100.00
8366;BME280;4220;42.502;24.188;2022-12-18T10:19:43;96275.03;;;6.40;100.00
8366;BME280;4220;42.502;24.188;2022-12-18T10:22:21;96276.66;;;6.49;100.00
8366;BME280;4220;42.502;24.188;2022-12-18T10:24:53;96283.41;;;6.51;100.00
8366;BME280;4220;42.502;24.188;2022-12-18T10:27:25;96290.16;;;6.54;100.00
8366;BME280;4220;42.502;24.188;2022-12-18T10:29:52;96264.50;;;6.48;100.00
8366;BME280;4220;42.502;24.188;2022-12-18T10:32:21;96271.88;;;6.61;100.00
8366;BME280;4220;42.502;24.188;2022-12-18T10:34:50;96275.63;;;6.66;100.00
8366;BME280;4220;42.502;24.188;2022-12-18T10:37:19;96266.44;;;6.62;100.00
8366;BME280;4220;42.502;24.188;2022-12-18T10:39:47;96274.34;;;6.62;100.00
8366;BME280;4220;42.502;24.188;2022-12-18T10:42:32;96283.91;;;6.63;100.00
8366;BME280;4220;42.502;24.188;2022-12-18T10:45:01;96267.09;;;6.56;100.00
8366;BME280;4220;42.502;24.188;2022-12-18T10:47:28;96284.69;;;6.72;100.00
8366;BME280;4220;42.502;24.188;2022-12-18T10:49:56;96271.72;;;6.62;100.00
8366;BME280;4220;42.502;24.188;2022-12-18T10:52:25;96281.28;;;6.55;100.00
8366;BME280;4220;42.502;24.188;2022-12-18T10:54:55;96261.03;;;6.55;100.00
8366;BME280;4220;42.502;24.188;2022-12-18T10:57:33;96261.16;;;6.62;100.00
8366;BME280;4220;42.502;24.188;2022-12-18T11:00:21;96268.41;;;6.60;100.00
8366;BME280;4220;42.502;24.188;2022-12-18T11:02:49;96265.28;;;6.56;100.00
8366;BME280;4220;42.502;24.188;2022-12-18T11:05:27;96271.38;;;6.57;100.00
8366;BME280;4220;42.502;24.188;2022-12-18T11:07:55;96275.00;;;6.56;100.00
8366;BME280;4220;42.502;24.188;2022-12-18T11:10:25;96270.38;;;6.66;100.00
8366;BME280;4220;42.502;24.188;2022-12-18T11:12:54;96222.19;;;6.33;100.00
8366;BME280;4220;42.502;24.188;2022-12-18T11:15:24;96271.69;;;6.70;100.00
8366;BME280;4220;42.502;24.188;2022-12-18T11:17:52;96271.84;;;6.77;100.00
8366;BME280;4220;42.502;24.188;2022-12-18T11:20:24;96228.56;;;6.55;100.00
8366;BME280;4220;42.502;24.188;2022-12-18T11:22:57;96273.63;;;6.84;100.00
8366;BME280;4220;42.502;24.188;2022-12-18T11:25:25;96275.94;;;6.87;100.00
8366;BME280;4220;42.502;24.188;2022-12-18T11:27:59;96277.06;;;6.93;100.00
8366;BME280;4220;42.502;24.188;2022-12-18T11:30:28;96273.94;;;6.89;100.00
8366;BME280;4220;42.502;24.188;2022-12-18T11:33:04;96245.47;;;6.77;100.00
8366;BME280;4220;42.502;24.188;2022-12-18T11:35:39;96271.94;;;6.91;100.00
8366;BME280;4220;42.502;24.188;2022-12-18T11:38:18;96263.41;;;6.81;100.00
8366;BME280;4220;42.502;24.188;2022-12-18T11:40:51;96277.75;;;6.87;100.00
8366;BME280;4220;42.502;24.188;2022-12-18T11:43:26;96283.84;;;6.87;100.00
8366;BME280;4220;42.502;24.188;2022-12-18T11:45:58;96282.19;;;6.78;100.00
8366;BME280;4220;42.502;24.188;2022-12-18T11:48:28;96286.78;;;6.92;100.00
8366;BME280;4220;42.502;24.188;2022-12-18T11:50:59;96288.94;;;6.81;100.00
8366;BME280;4220;42.502;24.188;2022-12-18T11:53:29;96283.34;;;6.76;100.00
8366;BME280;4220;42.502;24.188;2022-12-18T11:56:04;96278.13;;;6.68;100.00
8366;BME280;4220;42.502;24.188;2022-12-18T11:58:49;96287.66;;;6.69;100.00
8366;BME280;4220;42.502;24.188;2022-12-18T12:01:32;96283.41;;;6.59;100.00
8366;BME280;4220;42.502;24.188;2022-12-18T12:04:21;96292.16;;;6.60;100.00
8366;BME280;4220;42.502;24.188;2022-12-18T12:07:00;96281.09;;;6.56;100.00
8366;BME280;4220;42.502;24.188;2022-12-18T12:09:34;96285.53;;;6.56;100.00
8366;BME280;4220;42.502;24.188;2022-12-18T12:12:16;96283.91;;;6.55;100.00
8366;BME280;4220;42.502;24.188;2022-12-18T12:14:54;96283.91;;;6.55;100.00
8366;BME280;4220;42.502;24.188;2022-12-18T12:17:32;96299.41;;;6.58;100.00
8366;BME280;4220;42.502;24.188;2022-12-18T12:20:07;96298.06;;;6.54;100.00
8366;BME280;4220;42.502;24.188;2022-12-18T12:22:44;96255.28;;;6.28;100.00
8366;BME280;4220;42.502;24.188;2022-12-18T12:25:21;96299.56;;;6.56;100.00
8366;BME280;4220;42.502;24.188;2022-12-18T12:28:00;96310.75;;;6.58;100.00
8366;BME280;4220;42.502;24.188;2022-12-18T12:30:39;96307.13;;;6.51;100.00
8366;BME280;4220;42.502;24.188;2022-12-18T12:33:22;96298.75;;;6.40;100.00
8366;BME280;4220;42.502;24.188;2022-12-18T12:35:59;96306.66;;;6.48;100.00
8366;BME280;4220;42.502;24.188;2022-12-18T12:38:40;96262.72;;;6.16;100.00
8366;BME280;4220;42.502;24.188;2022-12-18T12:41:10;96311.75;;;6.49;100.00
8366;BME280;4220;42.502;24.188;2022-12-18T12:44:01;96321.13;;;6.52;100.00
8366;BME280;4220;42.502;24.188;2022-12-18T12:46:32;96312.75;;;6.48;100.00
8366;BME280;4220;42.502;24.188;2022-12-18T12:49:02;96294.97;;;6.42;100.00
8366;BME280;4220;42.502;24.188;2022-12-18T12:51:34;96334.78;;;6.64;100.00
8366;BME280;4220;42.502;24.188;2022-12-18T12:54:04;96322.94;;;6.59;100.00
8366;BME280;4220;42.502;24.188;2022-12-18T12:56:37;96338.25;;;6.56;100.00
8366;BME280;4220;42.502;24.188;2022-12-18T12:59:13;96339.09;;;6.56;100.00
8366;BME280;4220;42.502;24.188;2022-12-18T13:01:52;96346.84;;;6.58;100.00
8366;BME280;4220;42.502;24.188;2022-12-18T13:04:26;96354.56;;;6.59;100.00
8366;BME280;4220;42.502;24.188;2022-12-18T13:06:58;96364.78;;;6.54;100.00
8366;BME280;4220;42.502;24.188;2022-12-18T13:09:30;96356.41;;;6.51;100.00
8366;BME280;4220;42.502;24.188;2022-12-18T13:12:03;96359.03;;;6.43;100.00
8366;BME280;4220;42.502;24.188;2022-12-18T13:14:48;96364.31;;;6.43;100.00
8366;BME280;4220;42.502;24.188;2022-12-18T13:17:28;96367.44;;;6.38;100.00
8366;BME280;4220;42.502;24.188;2022-12-18T13:20:08;96376.13;;;6.39;100.00
8366;BME280;4220;42.502;24.188;2022-12-18T13:22:37;96391.63;;;6.42;100.00
8366;BME280;4220;42.502;24.188;2022-12-18T13:25:35;96397.22;;;6.39;100.00